createdAt,value
2019-06-27T00:00:02.530Z,57.85
2019-06-27T00:05:03.393Z,58.07
2019-06-27T00:10:02.913Z,57.91
2019-06-27T00:15:03.361Z,58.0
2019-06-27T00:20:02.816Z,58.08
2019-06-27T00:25:03.226Z,58.21
2019-06-27T00:30:02.691Z,58.38
2019-06-27T00:35:03.197Z,58.38
2019-06-27T00:40:02.755Z,58.36
2019-06-27T00:45:03.142Z,58.61
2019-06-27T00:50:02.701Z,58.78
2019-06-27T00:55:03.102Z,58.63
2019-06-27T01:00:02.565Z,58.82
2019-06-27T01:05:02.974Z,58.83
2019-06-27T01:10:02.426Z,58.67
2019-06-27T01:15:02.899Z,58.65
2019-06-27T01:20:03.402Z,58.67
2019-06-27T01:25:02.907Z,58.81
2019-06-27T01:30:03.346Z,58.82
2019-06-27T01:35:04.386Z,58.88
2019-06-27T01:40:03.013Z,58.98
2019-06-27T01:45:02.467Z,59.07
2019-06-27T01:50:02.883Z,59.4
2019-06-27T01:55:03.270Z,59.27
2019-06-27T02:00:02.706Z,58.98
2019-06-27T02:05:03.106Z,59.02
2019-06-27T02:10:02.942Z,58.91
2019-06-27T02:15:02.422Z,58.75
2019-06-27T02:20:02.874Z,58.87
2019-06-27T02:25:03.306Z,59.25
2019-06-27T02:30:02.095Z,59.24
2019-06-27T02:35:02.537Z,59.34
2019-06-27T02:40:03.004Z,59.35
2019-06-27T02:45:02.419Z,59.23
2019-06-27T02:50:02.898Z,58.81
2019-06-27T02:55:03.327Z,58.49
2019-06-27T03:00:02.827Z,58.49
2019-06-27T03:05:03.284Z,58.57
2019-06-27T03:10:02.790Z,58.65
2019-06-27T03:15:03.229Z,58.98
2019-06-27T03:20:02.641Z,58.96
2019-06-27T03:25:03.097Z,58.97
2019-06-27T03:30:02.603Z,58.94
2019-06-27T03:35:03.158Z,59.33
2019-06-27T03:40:02.689Z,59.07
2019-06-27T03:45:03.121Z,59.18
2019-06-27T03:50:02.545Z,59.22
2019-06-27T03:55:02.947Z,59.2
2019-06-27T04:00:03.369Z,59.33
2019-06-27T04:05:02.792Z,59.23
2019-06-27T04:10:03.193Z,58.85
2019-06-27T04:15:02.610Z,58.43
2019-06-27T04:20:03.057Z,58.53
2019-06-27T04:25:02.471Z,58.58
2019-06-27T04:30:02.554Z,58.48
2019-06-27T04:35:03.048Z,58.55
2019-06-27T04:40:02.471Z,58.35
2019-06-27T04:45:02.899Z,58.6
2019-06-27T04:50:03.363Z,58.74
2019-06-27T04:55:04.017Z,58.88
2019-06-27T05:00:02.120Z,58.86
2019-06-27T05:05:02.643Z,59.22
2019-06-27T05:10:03.076Z,59.14
2019-06-27T05:15:02.510Z,60.13
2019-06-27T05:20:03.431Z,60.56
2019-06-27T05:25:03.092Z,61.23
2019-06-27T05:30:09.182Z,60.83
2019-06-27T05:35:02.824Z,60.6
2019-06-27T05:40:03.277Z,60.78
2019-06-27T05:45:02.689Z,61.25
2019-06-27T05:50:03.132Z,60.74
2019-06-27T05:55:02.560Z,60.9
2019-06-27T06:00:03.010Z,61.16
2019-06-27T06:05:02.520Z,60.83
2019-06-27T06:10:02.929Z,60.74
2019-06-27T06:15:03.414Z,59.8
2019-06-27T06:20:02.956Z,59.73
2019-06-27T06:25:02.452Z,59.62
2019-06-27T06:30:02.891Z,59.46
2019-06-27T06:35:03.340Z,60.1
2019-06-27T06:40:02.851Z,59.31
2019-06-27T06:45:03.302Z,59.17
2019-06-27T06:50:02.812Z,58.69
2019-06-27T06:55:03.270Z,57.93
2019-06-27T07:00:02.693Z,57.41
2019-06-27T07:05:03.125Z,57.33
2019-06-27T07:10:02.789Z,56.87
2019-06-27T07:15:03.569Z,56.68
2019-06-27T07:20:03.124Z,56.25
2019-06-27T07:25:02.664Z,55.86
2019-06-27T07:30:02.529Z,55.62
2019-06-27T07:35:03.037Z,55.18
2019-06-27T07:40:02.553Z,54.79
2019-06-27T07:45:03.085Z,54.33
2019-06-27T07:50:02.599Z,53.83
2019-06-27T07:55:03.025Z,53.61
2019-06-27T08:00:02.466Z,52.8
2019-06-27T08:05:02.929Z,52.75
2019-06-27T08:10:03.335Z,52.63
2019-06-27T08:15:02.793Z,52.21
2019-06-27T08:20:03.261Z,51.85
2019-06-27T08:25:02.736Z,51.57
2019-06-27T08:30:03.275Z,51.18
2019-06-27T08:35:02.692Z,51.2
2019-06-27T08:40:03.143Z,50.6
2019-06-27T08:45:02.595Z,50.48
2019-06-27T08:50:03.108Z,50.87
2019-06-27T08:55:02.620Z,50.27
2019-06-27T09:00:03.075Z,50.13
2019-06-27T09:05:02.585Z,50.24
2019-06-27T09:10:03.135Z,50.22
2019-06-27T09:15:02.652Z,50.08
2019-06-27T09:20:03.212Z,49.7
2019-06-27T09:25:02.727Z,49.83
2019-06-27T09:30:03.158Z,49.25
2019-06-27T09:35:02.581Z,48.33
2019-06-27T09:40:03.336Z,48.33
2019-06-27T09:45:02.760Z,48.06
2019-06-27T09:50:03.297Z,47.07
2019-06-27T09:55:02.715Z,47.56
2019-06-27T10:00:02.401Z,48.03
2019-06-27T10:05:02.880Z,47.14
2019-06-27T10:10:03.405Z,47.63
2019-06-27T10:15:02.946Z,47.36
2019-06-27T10:20:03.396Z,46.86
2019-06-27T10:25:02.922Z,45.71
2019-06-27T10:30:03.455Z,45.79
2019-06-27T10:35:02.973Z,45.66
2019-06-27T10:40:02.405Z,45.71
2019-06-27T10:45:02.943Z,44.7
2019-06-27T10:50:03.474Z,45.14
2019-06-27T10:55:03.009Z,44.41
2019-06-27T11:00:02.520Z,44.72
2019-06-27T11:05:03.086Z,44.82
2019-06-27T11:10:02.516Z,43.42
2019-06-27T11:15:03.036Z,43.02
2019-06-27T11:20:02.596Z,43.75
2019-06-27T11:25:03.091Z,43.36
2019-06-27T11:30:02.627Z,42.83
2019-06-27T11:35:03.163Z,43.12
2019-06-27T11:40:02.783Z,41.77
2019-06-27T11:45:03.323Z,42.74
2019-06-27T11:50:02.764Z,40.82
2019-06-27T11:55:03.195Z,41.45
2019-06-27T12:00:02.718Z,41.51
2019-06-27T12:05:03.275Z,41.36
2019-06-27T12:10:02.775Z,42.31
2019-06-27T12:15:03.215Z,42.04
2019-06-27T12:20:02.762Z,41.2
2019-06-27T12:25:03.568Z,40.05
2019-06-27T12:30:03.153Z,40.88
2019-06-27T12:35:02.733Z,40.88
2019-06-27T12:40:03.175Z,39.94
2019-06-27T12:45:02.709Z,36.88
2019-06-27T12:50:03.518Z,38.27
2019-06-27T12:55:03.077Z,36.22
2019-06-27T13:00:02.509Z,34.69
2019-06-27T13:05:03.035Z,35.01
2019-06-27T13:10:01.834Z,35.77
2019-06-27T13:15:03.399Z,36.68
2019-06-27T13:20:02.987Z,35.62
2019-06-27T13:25:02.446Z,34.66
2019-06-27T13:30:03.031Z,33.69
2019-06-27T13:35:02.632Z,38.04
2019-06-27T13:40:04.780Z,34.39
2019-06-27T13:45:03.406Z,33.65
2019-06-27T13:50:02.890Z,33.23
2019-06-27T13:55:03.392Z,36.34
2019-06-27T14:00:02.922Z,33.75
2019-06-27T14:05:03.454Z,34.38
2019-06-27T14:10:03.000Z,36.93
2019-06-27T14:15:02.476Z,32.0
2019-06-27T14:20:03.044Z,34.01
2019-06-27T14:25:02.536Z,32.6
2019-06-27T14:30:03.026Z,31.14
2019-06-27T14:35:14.862Z,29.43
2019-06-27T14:40:02.658Z,31.46
2019-06-27T14:45:03.232Z,34.61
2019-06-27T14:50:02.729Z,32.87
2019-06-27T14:55:03.303Z,35.07
2019-06-27T15:00:02.794Z,30.51
2019-06-27T15:05:03.341Z,29.93
2019-06-27T15:10:02.865Z,30.03
2019-06-27T15:15:03.370Z,30.32
2019-06-27T15:20:02.901Z,30.8
2019-06-27T15:25:03.477Z,31.71
2019-06-27T15:30:03.094Z,32.23
2019-06-27T15:35:02.742Z,32.92
2019-06-27T15:40:03.225Z,33.69
2019-06-27T15:45:02.967Z,34.82
2019-06-27T15:50:02.468Z,35.3
2019-06-27T15:55:02.920Z,35.85
2019-06-27T16:00:03.364Z,36.07
2019-06-27T16:05:02.883Z,36.83
2019-06-27T16:10:03.424Z,37.66
2019-06-27T16:15:02.865Z,37.69
2019-06-27T16:20:03.424Z,38.1
2019-06-27T16:25:02.909Z,39.06
2019-06-27T16:30:03.387Z,39.46
2019-06-27T16:35:02.869Z,39.63
2019-06-27T16:40:03.343Z,40.25
2019-06-27T16:45:02.786Z,40.98
2019-06-27T16:50:03.282Z,41.32
2019-06-27T16:55:02.799Z,41.81
2019-06-27T17:00:03.380Z,41.77
2019-06-27T17:05:02.961Z,42.3
2019-06-27T17:10:02.507Z,42.62
2019-06-27T17:15:03.044Z,42.69
2019-06-27T17:20:02.557Z,42.64
2019-06-27T17:25:02.987Z,43.74
2019-06-27T17:30:02.514Z,43.35
2019-06-27T17:35:02.969Z,44.01
2019-06-27T17:40:02.403Z,44.57
2019-06-27T17:45:02.950Z,45.08
2019-06-27T17:50:03.479Z,44.31
2019-06-27T17:55:02.998Z,45.23
2019-06-27T18:00:02.557Z,44.94
2019-06-27T18:05:02.212Z,45.32
2019-06-27T18:10:02.686Z,45.32
2019-06-27T18:15:03.230Z,45.66
2019-06-27T18:20:02.757Z,45.84
2019-06-27T18:25:03.176Z,46.03
2019-06-27T18:30:02.641Z,46.08
2019-06-27T18:35:03.165Z,46.31
2019-06-27T18:40:02.606Z,46.66
2019-06-27T18:45:03.039Z,46.68
2019-06-27T18:50:02.535Z,47.16
2019-06-27T18:55:03.482Z,47.42
2019-06-27T19:00:02.909Z,47.05
2019-06-27T19:05:05.480Z,47.06
2019-06-27T19:10:03.137Z,47.32
2019-06-27T19:15:02.630Z,47.79
2019-06-27T19:20:03.190Z,47.72
2019-06-27T19:25:02.659Z,47.99
2019-06-27T19:30:03.212Z,47.52
2019-06-27T19:35:02.692Z,47.68
2019-06-27T19:40:03.172Z,47.48
2019-06-27T19:45:02.701Z,47.85
2019-06-27T19:50:03.250Z,47.98
2019-06-27T19:55:02.759Z,47.88
2019-06-27T20:00:03.262Z,47.95
2019-06-27T20:05:02.720Z,48.2
2019-06-27T20:10:03.170Z,48.3
2019-06-27T20:15:02.686Z,48.24
2019-06-27T20:20:03.135Z,48.26
2019-06-27T20:25:02.678Z,48.26
2019-06-27T20:30:03.205Z,48.31
2019-06-27T20:35:02.739Z,48.42
2019-06-27T20:40:03.179Z,48.45
2019-06-27T20:45:02.687Z,48.54
2019-06-27T20:50:03.156Z,48.65
2019-06-27T20:55:02.660Z,48.71
2019-06-27T21:00:03.192Z,48.78
2019-06-27T21:05:02.750Z,49.01
2019-06-27T21:10:03.366Z,49.01
2019-06-27T21:15:02.877Z,49.21
2019-06-27T21:20:03.329Z,49.22
2019-06-27T21:25:02.866Z,49.27
2019-06-27T21:30:03.415Z,49.28
2019-06-27T21:35:02.852Z,49.44
2019-06-27T21:40:03.348Z,49.59
2019-06-27T21:45:02.876Z,49.72
2019-06-27T21:50:03.314Z,49.71
2019-06-27T21:55:02.836Z,49.86
2019-06-27T22:00:03.304Z,49.94
2019-06-27T22:05:02.726Z,50.11
2019-06-27T22:10:03.473Z,50.19
2019-06-27T22:15:03.231Z,50.44
2019-06-27T22:20:14.626Z,50.51
2019-06-27T22:25:02.725Z,50.52
2019-06-27T22:30:03.177Z,50.66
2019-06-27T22:35:02.699Z,50.67
2019-06-27T22:40:03.233Z,50.75
2019-06-27T22:45:02.770Z,50.88
2019-06-27T22:50:03.309Z,50.93
2019-06-27T22:55:02.830Z,51.04
2019-06-27T23:00:08.450Z,51.09
2019-06-27T23:05:03.353Z,51.19
2019-06-27T23:10:02.921Z,51.28
2019-06-27T23:15:03.405Z,51.33
2019-06-27T23:20:02.824Z,51.4
2019-06-27T23:25:03.404Z,51.51
2019-06-27T23:30:02.852Z,51.57
2019-06-27T23:35:03.342Z,51.65
2019-06-27T23:40:13.560Z,51.75
2019-06-27T23:45:03.333Z,51.77
2019-06-27T23:50:02.797Z,51.86
2019-06-27T23:55:03.330Z,51.96
